Portada
METAR-TAF:

METAR-TAF

Aeroports :

Ranong, Tailàndia

latitud: 09-59N, longitud: 098-37E, altitud: 7 m

Observació

L'informe es va fer fa 26 minuts, a les 04:00 UTC
Vent 6 kt amb direcció variable
Temperatura 30°C
Humitat 70%
Pressió 1011 hPa
Visibilitat 10 km o més
Escasses núvols a una alçada de 2000 ft
Cel ennuvolat a una alçada de 10000 ft

METAR: VTSR 210400Z VRB06KT 9999 FEW020 BKN100 30/24 Q1011 NOSIG

Hora: 11:26 (04:26 UTC)

Pronòstic

L'informe es va fer fa 5 hores i 26 minuts, a les 23:00 UTC
Pronòstic vàlid del 21 a les 00 UTC al 21 a les 24 UTC
Vent 12 kt del Est
Visibilitat 10 km o més
Núvols disperses a una alçada de 2500 ft
Temporalment
l' 21 a les 04 UTC al 21 a les 10 UTC
Vent 15 kt del Est amb ràfegues de 30 kt
Visibilitat: 5000 m
Cel ennuvolat a una alçada de 2000 ft
pluja

TAF: VTSR 202300Z 2100/2124 10012KT 9999 SCT025 TEMPO 2104/2110 10015G30KT 5000 RA BKN020

Observacions i pronòstics meteorològics de més de 4000 aeroports (METAR i TAF).

Les estacions disponibles són els punts grocs i vermells al mapa.

Posi el ratolí al punt desitjat per veure el nom de l'estació.

Feu clic per veure les observacions i els pronòstics meteorològics.

Per canviar el mapa: feu clic els botons verds amb una creu de color negre per apropar; al botó verd amb un guió per allunyar la imatge; o en les fletxes verdes per a mapes adjacents.


METAR-TAF: